Terminal Aerodrome Forecast
Issued by NWS Louisville, KY

Home | Current Version | Previous Version | Text Only | Print | Product List | Glossary On
Versions: 1 2 3 4 5 6 7 8 9 10 11 12 13 14 15 16 17 18 19
874
FTUS43 KLMK 201723
TAFBWG
TAF
KBWG 201723Z 2018/2118 19003KT P6SM BKN035
     FM210600 00000KT 5SM BR FEW250
     FM211000 00000KT 1SM BR FEW250
     FM211400 VRB03KT P6SM FEW040 SCT200=

USA.gov is the U.S. government's official web portal to all federal, state and local government web resources and services.